sensor_id;sensor_type;location;lat;lon;timestamp;temperature;humidity
66710;DHT22;53624;0.000;0.000;2024-01-30T00:01:30;13.30;99.90
66710;DHT22;53624;0.000;0.000;2024-01-30T00:03:57;13.30;99.90
66710;DHT22;53624;0.000;0.000;2024-01-30T00:06:24;13.30;99.90
66710;DHT22;53624;0.000;0.000;2024-01-30T00:08:51;13.30;99.90
66710;DHT22;53624;0.000;0.000;2024-01-30T00:11:20;13.30;99.90
66710;DHT22;53624;0.000;0.000;2024-01-30T00:13:47;13.30;99.90
66710;DHT22;53624;0.000;0.000;2024-01-30T00:16:21;13.30;99.90
66710;DHT22;53624;0.000;0.000;2024-01-30T00:18:49;13.30;99.90
66710;DHT22;53624;0.000;0.000;2024-01-30T00:21:17;13.30;99.90
66710;DHT22;53624;0.000;0.000;2024-01-30T00:23:44;13.30;99.90
66710;DHT22;53624;0.000;0.000;2024-01-30T00:26:11;13.30;99.90
66710;DHT22;53624;0.000;0.000;2024-01-30T00:28:40;13.30;99.90
66710;DHT22;53624;0.000;0.000;2024-01-30T00:31:07;13.30;99.90
66710;DHT22;53624;0.000;0.000;2024-01-30T00:33:34;13.30;99.90
66710;DHT22;53624;0.000;0.000;2024-01-30T00:36:02;13.30;99.90
66710;DHT22;53624;0.000;0.000;2024-01-30T00:38:29;13.30;99.90
66710;DHT22;53624;0.000;0.000;2024-01-30T00:40:56;13.30;99.90
66710;DHT22;53624;0.000;0.000;2024-01-30T00:43:23;13.30;99.90
66710;DHT22;53624;0.000;0.000;2024-01-30T00:45:52;13.30;99.90
66710;DHT22;53624;0.000;0.000;2024-01-30T00:48:20;13.30;99.90
66710;DHT22;53624;0.000;0.000;2024-01-30T00:50:47;13.30;99.90
66710;DHT22;53624;0.000;0.000;2024-01-30T00:53:14;13.30;99.90
66710;DHT22;53624;0.000;0.000;2024-01-30T00:55:41;13.20;99.90
66710;DHT22;53624;0.000;0.000;2024-01-30T00:58:08;13.20;99.90
66710;DHT22;53624;0.000;0.000;2024-01-30T01:00:36;13.20;99.90
66710;DHT22;53624;0.000;0.000;2024-01-30T01:03:04;13.30;99.90
66710;DHT22;53624;0.000;0.000;2024-01-30T01:05:31;13.20;99.90
66710;DHT22;53624;0.000;0.000;2024-01-30T01:07:58;13.20;99.90
66710;DHT22;53624;0.000;0.000;2024-01-30T01:10:26;13.20;99.90
66710;DHT22;53624;0.000;0.000;2024-01-30T01:12:54;13.20;99.90
66710;DHT22;53624;0.000;0.000;2024-01-30T01:15:21;13.20;99.90
66710;DHT22;53624;0.000;0.000;2024-01-30T01:17:48;13.20;99.90
66710;DHT22;53624;0.000;0.000;2024-01-30T01:20:17;13.30;99.90
66710;DHT22;53624;0.000;0.000;2024-01-30T01:22:44;13.20;99.90
66710;DHT22;53624;0.000;0.000;2024-01-30T01:25:11;13.20;99.90
66710;DHT22;53624;0.000;0.000;2024-01-30T01:27:38;13.20;99.90
66710;DHT22;53624;0.000;0.000;2024-01-30T01:30:08;13.20;99.90
66710;DHT22;53624;0.000;0.000;2024-01-30T01:32:35;13.20;99.90
66710;DHT22;53624;0.000;0.000;2024-01-30T01:35:04;13.20;99.90
66710;DHT22;53624;0.000;0.000;2024-01-30T01:37:33;13.20;99.90
66710;DHT22;53624;0.000;0.000;2024-01-30T01:40:00;13.20;99.90
66710;DHT22;53624;0.000;0.000;2024-01-30T01:42:28;13.20;99.90
66710;DHT22;53624;0.000;0.000;2024-01-30T01:44:55;13.20;99.90
66710;DHT22;53624;0.000;0.000;2024-01-30T01:47:22;13.20;99.90
66710;DHT22;53624;0.000;0.000;2024-01-30T01:49:49;13.20;99.90
66710;DHT22;53624;0.000;0.000;2024-01-30T01:52:16;13.20;99.90
66710;DHT22;53624;0.000;0.000;2024-01-30T01:54:45;13.20;99.90
66710;DHT22;53624;0.000;0.000;2024-01-30T01:57:12;13.20;99.90
66710;DHT22;53624;0.000;0.000;2024-01-30T01:59:39;13.20;99.90
66710;DHT22;53624;0.000;0.000;2024-01-30T02:02:06;13.20;99.90
66710;DHT22;53624;0.000;0.000;2024-01-30T02:04:38;13.20;99.90
66710;DHT22;53624;0.000;0.000;2024-01-30T02:07:05;13.20;99.90
66710;DHT22;53624;0.000;0.000;2024-01-30T02:09:32;13.20;99.90
66710;DHT22;53624;0.000;0.000;2024-01-30T02:12:01;13.20;99.90
66710;DHT22;53624;0.000;0.000;2024-01-30T02:14:28;13.10;99.90
66710;DHT22;53624;0.000;0.000;2024-01-30T02:16:55;13.10;99.90
66710;DHT22;53624;0.000;0.000;2024-01-30T02:19:22;13.10;99.90
66710;DHT22;53624;0.000;0.000;2024-01-30T02:21:51;13.10;99.90
66710;DHT22;53624;0.000;0.000;2024-01-30T02:24:19;13.10;99.90
66710;DHT22;53624;0.000;0.000;2024-01-30T02:26:46;13.10;99.90
66710;DHT22;53624;0.000;0.000;2024-01-30T02:29:13;13.10;99.90
66710;DHT22;53624;0.000;0.000;2024-01-30T02:31:40;13.10;99.90
66710;DHT22;53624;0.000;0.000;2024-01-30T02:34:07;13.10;99.90
66710;DHT22;53624;0.000;0.000;2024-01-30T02:36:34;13.10;99.90
66710;DHT22;53624;0.000;0.000;2024-01-30T02:39:03;13.10;99.90
66710;DHT22;53624;0.000;0.000;2024-01-30T02:41:31;13.10;99.90
66710;DHT22;53624;0.000;0.000;2024-01-30T02:43:58;13.10;99.90
66710;DHT22;53624;0.000;0.000;2024-01-30T02:46:25;13.10;99.90
66710;DHT22;53624;0.000;0.000;2024-01-30T02:48:52;13.10;99.90
66710;DHT22;53624;0.000;0.000;2024-01-30T02:51:19;13.10;99.90
66710;DHT22;53624;0.000;0.000;2024-01-30T02:53:46;13.10;99.90
66710;DHT22;53624;0.000;0.000;2024-01-30T02:56:15;13.10;99.90
66710;DHT22;53624;0.000;0.000;2024-01-30T02:58:42;13.10;99.90
66710;DHT22;53624;0.000;0.000;2024-01-30T03:01:09;13.10;99.90
66710;DHT22;53624;0.000;0.000;2024-01-30T03:03:36;13.10;99.90
66710;DHT22;53624;0.000;0.000;2024-01-30T03:06:04;13.10;99.90
66710;DHT22;53624;0.000;0.000;2024-01-30T03:08:32;13.00;99.90
66710;DHT22;53624;0.000;0.000;2024-01-30T03:11:00;13.00;99.90
66710;DHT22;53624;0.000;0.000;2024-01-30T03:13:29;13.00;99.90
66710;DHT22;53624;0.000;0.000;2024-01-30T03:15:56;13.10;99.90
66710;DHT22;53624;0.000;0.000;2024-01-30T03:18:23;13.00;99.90
66710;DHT22;53624;0.000;0.000;2024-01-30T03:20:51;13.10;99.90
66710;DHT22;53624;0.000;0.000;2024-01-30T03:23:18;13.00;99.90
66710;DHT22;53624;0.000;0.000;2024-01-30T03:25:45;13.00;99.90
66710;DHT22;53624;0.000;0.000;2024-01-30T03:28:12;13.00;99.90
66710;DHT22;53624;0.000;0.000;2024-01-30T03:30:41;13.00;99.90
66710;DHT22;53624;0.000;0.000;2024-01-30T03:33:08;13.00;99.90
66710;DHT22;53624;0.000;0.000;2024-01-30T03:35:35;13.00;99.90
66710;DHT22;53624;0.000;0.000;2024-01-30T03:38:03;13.00;99.90
66710;DHT22;53624;0.000;0.000;2024-01-30T03:40:30;13.00;99.90
66710;DHT22;53624;0.000;0.000;2024-01-30T03:42:57;13.00;99.90
66710;DHT22;53624;0.000;0.000;2024-01-30T03:45:24;13.00;99.90
66710;DHT22;53624;0.000;0.000;2024-01-30T03:47:53;13.00;99.90
66710;DHT22;53624;0.000;0.000;2024-01-30T03:50:20;13.00;99.90
66710;DHT22;53624;0.000;0.000;2024-01-30T03:52:47;13.00;99.90
66710;DHT22;53624;0.000;0.000;2024-01-30T03:55:14;13.00;99.90
66710;DHT22;53624;0.000;0.000;2024-01-30T03:57:42;12.90;99.90
66710;DHT22;53624;0.000;0.000;2024-01-30T04:00:09;12.90;99.90
66710;DHT22;53624;0.000;0.000;2024-01-30T04:02:39;12.90;99.90
66710;DHT22;53624;0.000;0.000;2024-01-30T04:05:08;12.90;99.90
66710;DHT22;53624;0.000;0.000;2024-01-30T04:07:35;12.90;99.90
66710;DHT22;53624;0.000;0.000;2024-01-30T04:10:03;12.90;99.90
66710;DHT22;53624;0.000;0.000;2024-01-30T04:12:31;13.00;99.90
66710;DHT22;53624;0.000;0.000;2024-01-30T04:14:58;12.90;99.90
66710;DHT22;53624;0.000;0.000;2024-01-30T04:17:25;12.90;99.90
66710;DHT22;53624;0.000;0.000;2024-01-30T04:19:54;12.90;99.90
66710;DHT22;53624;0.000;0.000;2024-01-30T04:22:23;12.90;99.90
66710;DHT22;53624;0.000;0.000;2024-01-30T04:24:50;12.90;99.90
66710;DHT22;53624;0.000;0.000;2024-01-30T04:27:17;12.90;99.90
66710;DHT22;53624;0.000;0.000;2024-01-30T04:29:44;12.90;99.90
66710;DHT22;53624;0.000;0.000;2024-01-30T04:32:12;12.90;99.90
66710;DHT22;53624;0.000;0.000;2024-01-30T04:34:39;12.90;99.90
66710;DHT22;53624;0.000;0.000;2024-01-30T04:37:06;12.90;99.90
66710;DHT22;53624;0.000;0.000;2024-01-30T04:39:35;12.90;99.90
66710;DHT22;53624;0.000;0.000;2024-01-30T04:42:03;12.90;99.90
66710;DHT22;53624;0.000;0.000;2024-01-30T04:44:30;12.90;99.90
66710;DHT22;53624;0.000;0.000;2024-01-30T04:46:57;12.90;99.90
66710;DHT22;53624;0.000;0.000;2024-01-30T04:49:27;12.90;99.90
66710;DHT22;53624;0.000;0.000;2024-01-30T04:51:54;12.90;99.90
66710;DHT22;53624;0.000;0.000;2024-01-30T04:54:22;12.90;99.90
66710;DHT22;53624;0.000;0.000;2024-01-30T04:56:51;12.90;99.90
66710;DHT22;53624;0.000;0.000;2024-01-30T04:59:18;12.90;99.90
66710;DHT22;53624;0.000;0.000;2024-01-30T05:01:45;12.80;99.90
66710;DHT22;53624;0.000;0.000;2024-01-30T05:04:12;12.80;99.90
66710;DHT22;53624;0.000;0.000;2024-01-30T05:06:39;12.80;99.90
66710;DHT22;53624;0.000;0.000;2024-01-30T05:09:06;12.80;99.90
66710;DHT22;53624;0.000;0.000;2024-01-30T05:11:36;12.80;99.90
66710;DHT22;53624;0.000;0.000;2024-01-30T05:14:05;12.80;99.90
66710;DHT22;53624;0.000;0.000;2024-01-30T05:16:32;12.80;99.90
66710;DHT22;53624;0.000;0.000;2024-01-30T05:19:00;12.80;99.90
66710;DHT22;53624;0.000;0.000;2024-01-30T05:21:27;12.80;99.90
66710;DHT22;53624;0.000;0.000;2024-01-30T05:23:54;12.80;99.90
66710;DHT22;53624;0.000;0.000;2024-01-30T05:26:21;12.80;99.90
66710;DHT22;53624;0.000;0.000;2024-01-30T05:28:49;12.80;99.90
66710;DHT22;53624;0.000;0.000;2024-01-30T05:31:17;12.70;99.90
66710;DHT22;53624;0.000;0.000;2024-01-30T05:33:45;12.70;99.90
66710;DHT22;53624;0.000;0.000;2024-01-30T05:36:12;12.70;99.90
66710;DHT22;53624;0.000;0.000;2024-01-30T05:38:39;12.70;99.90
66710;DHT22;53624;0.000;0.000;2024-01-30T05:41:08;12.70;99.90
66710;DHT22;53624;0.000;0.000;2024-01-30T05:43:35;12.70;99.90
66710;DHT22;53624;0.000;0.000;2024-01-30T05:46:02;12.70;99.90
66710;DHT22;53624;0.000;0.000;2024-01-30T05:48:31;12.70;99.90
66710;DHT22;53624;0.000;0.000;2024-01-30T05:50:58;12.70;99.90
66710;DHT22;53624;0.000;0.000;2024-01-30T05:53:25;12.70;99.90
66710;DHT22;53624;0.000;0.000;2024-01-30T05:55:53;12.70;99.90
66710;DHT22;53624;0.000;0.000;2024-01-30T05:58:20;12.70;99.90
66710;DHT22;53624;0.000;0.000;2024-01-30T06:00:47;12.60;99.90
66710;DHT22;53624;0.000;0.000;2024-01-30T06:03:14;12.70;99.90
66710;DHT22;53624;0.000;0.000;2024-01-30T06:05:43;12.60;99.90
66710;DHT22;53624;0.000;0.000;2024-01-30T06:08:10;12.60;99.90
66710;DHT22;53624;0.000;0.000;2024-01-30T06:10:37;12.60;99.90
66710;DHT22;53624;0.000;0.000;2024-01-30T06:13:05;12.60;99.90
66710;DHT22;53624;0.000;0.000;2024-01-30T06:15:32;12.60;99.90
66710;DHT22;53624;0.000;0.000;2024-01-30T06:17:59;12.60;99.90
66710;DHT22;53624;0.000;0.000;2024-01-30T06:20:26;12.60;99.90
66710;DHT22;53624;0.000;0.000;2024-01-30T06:22:55;12.60;99.90
66710;DHT22;53624;0.000;0.000;2024-01-30T06:25:22;12.60;99.90
66710;DHT22;53624;0.000;0.000;2024-01-30T06:27:49;12.60;99.90
66710;DHT22;53624;0.000;0.000;2024-01-30T06:30:17;12.60;99.90
66710;DHT22;53624;0.000;0.000;2024-01-30T06:32:45;12.50;99.90
66710;DHT22;53624;0.000;0.000;2024-01-30T06:35:12;12.50;99.90
66710;DHT22;53624;0.000;0.000;2024-01-30T06:37:39;12.50;99.90
66710;DHT22;53624;0.000;0.000;2024-01-30T06:40:08;12.50;99.90
66710;DHT22;53624;0.000;0.000;2024-01-30T06:42:35;12.50;99.90
66710;DHT22;53624;0.000;0.000;2024-01-30T06:45:03;12.50;99.90
66710;DHT22;53624;0.000;0.000;2024-01-30T06:47:30;12.50;99.90
66710;DHT22;53624;0.000;0.000;2024-01-30T06:49:57;12.50;99.90
66710;DHT22;53624;0.000;0.000;2024-01-30T06:52:25;12.50;99.90
66710;DHT22;53624;0.000;0.000;2024-01-30T06:54:52;12.40;99.90
66710;DHT22;53624;0.000;0.000;2024-01-30T06:57:21;12.40;99.90
66710;DHT22;53624;0.000;0.000;2024-01-30T06:59:49;12.40;99.90
66710;DHT22;53624;0.000;0.000;2024-01-30T07:02:16;12.40;99.90
66710;DHT22;53624;0.000;0.000;2024-01-30T07:04:43;12.40;99.90
66710;DHT22;53624;0.000;0.000;2024-01-30T07:07:10;12.40;99.90
66710;DHT22;53624;0.000;0.000;2024-01-30T07:09:38;12.40;99.90
66710;DHT22;53624;0.000;0.000;2024-01-30T07:12:06;12.40;99.90
66710;DHT22;53624;0.000;0.000;2024-01-30T07:14:35;12.40;99.90
66710;DHT22;53624;0.000;0.000;2024-01-30T07:17:02;12.40;99.90
66710;DHT22;53624;0.000;0.000;2024-01-30T07:19:29;12.40;99.90
66710;DHT22;53624;0.000;0.000;2024-01-30T07:21:57;12.40;99.90
66710;DHT22;53624;0.000;0.000;2024-01-30T07:24:24;12.30;99.90
66710;DHT22;53624;0.000;0.000;2024-01-30T07:26:51;12.30;99.90
66710;DHT22;53624;0.000;0.000;2024-01-30T07:29:18;12.30;99.90
66710;DHT22;53624;0.000;0.000;2024-01-30T07:31:47;12.30;99.90
66710;DHT22;53624;0.000;0.000;2024-01-30T07:34:14;12.30;99.90
66710;DHT22;53624;0.000;0.000;2024-01-30T07:36:41;12.30;99.90
66710;DHT22;53624;0.000;0.000;2024-01-30T07:39:09;12.30;99.90
66710;DHT22;53624;0.000;0.000;2024-01-30T07:41:36;12.30;99.90
66710;DHT22;53624;0.000;0.000;2024-01-30T07:44:04;12.30;99.90
66710;DHT22;53624;0.000;0.000;2024-01-30T07:46:31;12.30;99.90
66710;DHT22;53624;0.000;0.000;2024-01-30T07:48:59;12.30;99.90
66710;DHT22;53624;0.000;0.000;2024-01-30T07:51:27;12.30;99.90
66710;DHT22;53624;0.000;0.000;2024-01-30T07:53:57;12.30;99.90
66710;DHT22;53624;0.000;0.000;2024-01-30T07:56:24;12.40;99.90
66710;DHT22;53624;0.000;0.000;2024-01-30T07:58:52;12.40;99.90
66710;DHT22;53624;0.000;0.000;2024-01-30T08:01:19;12.40;99.90
66710;DHT22;53624;0.000;0.000;2024-01-30T08:03:46;12.40;99.90
66710;DHT22;53624;0.000;0.000;2024-01-30T08:06:15;12.40;99.90
66710;DHT22;53624;0.000;0.000;2024-01-30T08:08:42;12.40;99.90
66710;DHT22;53624;0.000;0.000;2024-01-30T08:11:09;12.40;99.90
66710;DHT22;53624;0.000;0.000;2024-01-30T08:13:36;12.40;99.90
66710;DHT22;53624;0.000;0.000;2024-01-30T08:16:04;12.50;99.90
66710;DHT22;53624;0.000;0.000;2024-01-30T08:18:31;12.50;99.90
66710;DHT22;53624;0.000;0.000;2024-01-30T08:20:58;12.50;99.90
66710;DHT22;53624;0.000;0.000;2024-01-30T08:23:27;12.60;99.90
66710;DHT22;53624;0.000;0.000;2024-01-30T08:25:54;12.60;99.90
66710;DHT22;53624;0.000;0.000;2024-01-30T08:28:21;12.60;99.90
66710;DHT22;53624;0.000;0.000;2024-01-30T08:30:48;12.60;99.90
66710;DHT22;53624;0.000;0.000;2024-01-30T08:33:15;12.60;99.90
66710;DHT22;53624;0.000;0.000;2024-01-30T08:35:42;12.60;99.90
66710;DHT22;53624;0.000;0.000;2024-01-30T08:38:10;12.70;99.90
66710;DHT22;53624;0.000;0.000;2024-01-30T08:40:39;12.70;99.90
66710;DHT22;53624;0.000;0.000;2024-01-30T08:43:07;12.70;99.90
66710;DHT22;53624;0.000;0.000;2024-01-30T08:45:36;12.70;99.90
66710;DHT22;53624;0.000;0.000;2024-01-30T08:48:03;12.70;99.90
66710;DHT22;53624;0.000;0.000;2024-01-30T08:50:30;12.70;99.90
66710;DHT22;53624;0.000;0.000;2024-01-30T08:52:57;12.80;99.90
66710;DHT22;53624;0.000;0.000;2024-01-30T08:55:25;12.80;99.90
66710;DHT22;53624;0.000;0.000;2024-01-30T08:57:53;12.80;99.90
66710;DHT22;53624;0.000;0.000;2024-01-30T09:00:20;12.80;99.90
66710;DHT22;53624;0.000;0.000;2024-01-30T09:02:47;12.90;99.90
66710;DHT22;53624;0.000;0.000;2024-01-30T09:05:15;13.00;99.90
66710;DHT22;53624;0.000;0.000;2024-01-30T09:07:42;13.10;99.90
66710;DHT22;53624;0.000;0.000;2024-01-30T09:10:09;13.30;99.90
66710;DHT22;53624;0.000;0.000;2024-01-30T09:12:36;13.40;99.90
66710;DHT22;53624;0.000;0.000;2024-01-30T09:15:05;13.60;99.90
66710;DHT22;53624;0.000;0.000;2024-01-30T09:17:33;13.70;99.90
66710;DHT22;53624;0.000;0.000;2024-01-30T09:20:00;13.80;99.90
66710;DHT22;53624;0.000;0.000;2024-01-30T09:22:27;14.00;99.90
66710;DHT22;53624;0.000;0.000;2024-01-30T09:24:54;14.20;99.90
66710;DHT22;53624;0.000;0.000;2024-01-30T09:27:21;14.30;99.90
66710;DHT22;53624;0.000;0.000;2024-01-30T09:29:48;14.50;99.90
66710;DHT22;53624;0.000;0.000;2024-01-30T09:32:17;14.80;99.90
66710;DHT22;53624;0.000;0.000;2024-01-30T09:34:44;15.00;99.90
66710;DHT22;53624;0.000;0.000;2024-01-30T09:37:11;15.20;99.90
66710;DHT22;53624;0.000;0.000;2024-01-30T09:39:41;15.30;99.90
66710;DHT22;53624;0.000;0.000;2024-01-30T09:42:10;15.40;99.90
66710;DHT22;53624;0.000;0.000;2024-01-30T09:44:38;15.50;99.90
66710;DHT22;53624;0.000;0.000;2024-01-30T09:47:07;15.70;99.90
66710;DHT22;53624;0.000;0.000;2024-01-30T09:49:37;15.70;99.90
66710;DHT22;53624;0.000;0.000;2024-01-30T09:52:05;15.70;99.90
66710;DHT22;53624;0.000;0.000;2024-01-30T09:54:32;15.80;99.90
66710;DHT22;53624;0.000;0.000;2024-01-30T09:56:59;15.90;99.90
66710;DHT22;53624;0.000;0.000;2024-01-30T09:59:26;16.00;99.90
66710;DHT22;53624;0.000;0.000;2024-01-30T10:01:54;16.20;99.90
66710;DHT22;53624;0.000;0.000;2024-01-30T10:04:21;16.30;99.90
66710;DHT22;53624;0.000;0.000;2024-01-30T10:06:49;16.20;99.90
66710;DHT22;53624;0.000;0.000;2024-01-30T10:09:17;16.20;99.90
66710;DHT22;53624;0.000;0.000;2024-01-30T10:11:45;16.40;99.90
66710;DHT22;53624;0.000;0.000;2024-01-30T10:14:12;16.60;99.90
66710;DHT22;53624;0.000;0.000;2024-01-30T10:16:39;16.80;99.90
66710;DHT22;53624;0.000;0.000;2024-01-30T10:19:06;17.00;99.70
66710;DHT22;53624;0.000;0.000;2024-01-30T10:21:33;17.00;99.70
66710;DHT22;53624;0.000;0.000;2024-01-30T10:24:03;17.00;99.70
66710;DHT22;53624;0.000;0.000;2024-01-30T10:26:30;17.00;99.80
66710;DHT22;53624;0.000;0.000;2024-01-30T10:29:00;17.00;99.90
66710;DHT22;53624;0.000;0.000;2024-01-30T10:31:28;17.10;99.90
66710;DHT22;53624;0.000;0.000;2024-01-30T10:33:56;17.10;99.90
66710;DHT22;53624;0.000;0.000;2024-01-30T10:36:24;17.10;99.90
66710;DHT22;53624;0.000;0.000;2024-01-30T10:38:55;17.20;99.90
66710;DHT22;53624;0.000;0.000;2024-01-30T10:41:26;17.30;99.90
66710;DHT22;53624;0.000;0.000;2024-01-30T10:43:55;17.30;99.70
66710;DHT22;53624;0.000;0.000;2024-01-30T10:46:25;17.30;99.80
66710;DHT22;53624;0.000;0.000;2024-01-30T10:48:56;17.30;99.90
66710;DHT22;53624;0.000;0.000;2024-01-30T10:51:24;17.30;99.90
66710;DHT22;53624;0.000;0.000;2024-01-30T10:53:53;17.40;99.90
66710;DHT22;53624;0.000;0.000;2024-01-30T10:56:20;17.50;99.80
66710;DHT22;53624;0.000;0.000;2024-01-30T10:58:49;17.50;99.80
66710;DHT22;53624;0.000;0.000;2024-01-30T11:01:17;17.50;99.80
66710;DHT22;53624;0.000;0.000;2024-01-30T11:03:44;17.50;99.90
66710;DHT22;53624;0.000;0.000;2024-01-30T11:06:11;17.50;99.90
66710;DHT22;53624;0.000;0.000;2024-01-30T11:08:39;17.60;99.90
66710;DHT22;53624;0.000;0.000;2024-01-30T11:11:08;17.60;99.90
66710;DHT22;53624;0.000;0.000;2024-01-30T11:13:35;17.70;99.90
66710;DHT22;53624;0.000;0.000;2024-01-30T11:16:04;17.60;99.90
66710;DHT22;53624;0.000;0.000;2024-01-30T11:18:32;17.60;99.90
66710;DHT22;53624;0.000;0.000;2024-01-30T11:21:00;17.50;99.90
66710;DHT22;53624;0.000;0.000;2024-01-30T11:23:27;17.50;99.90
66710;DHT22;53624;0.000;0.000;2024-01-30T11:25:55;17.60;99.90
66710;DHT22;53624;0.000;0.000;2024-01-30T11:28:23;17.60;99.90
66710;DHT22;53624;0.000;0.000;2024-01-30T11:30:50;17.50;99.90
66710;DHT22;53624;0.000;0.000;2024-01-30T11:33:28;17.50;99.90
66710;DHT22;53624;0.000;0.000;2024-01-30T11:35:56;17.60;99.90
66710;DHT22;53624;0.000;0.000;2024-01-30T11:38:24;17.70;99.90
66710;DHT22;53624;0.000;0.000;2024-01-30T11:40:52;17.70;99.90
66710;DHT22;53624;0.000;0.000;2024-01-30T11:43:19;17.90;99.90
66710;DHT22;53624;0.000;0.000;2024-01-30T11:45:47;18.10;99.90
66710;DHT22;53624;0.000;0.000;2024-01-30T11:48:14;18.30;99.60
66710;DHT22;53624;0.000;0.000;2024-01-30T11:50:43;18.40;99.60
66710;DHT22;53624;0.000;0.000;2024-01-30T11:53:10;18.60;99.40
66710;DHT22;53624;0.000;0.000;2024-01-30T11:55:37;18.90;99.20
66710;DHT22;53624;0.000;0.000;2024-01-30T11:58:05;19.10;98.90
66710;DHT22;53624;0.000;0.000;2024-01-30T12:00:32;19.00;99.00
66710;DHT22;53624;0.000;0.000;2024-01-30T12:03:00;18.90;99.10
66710;DHT22;53624;0.000;0.000;2024-01-30T12:05:28;19.00;99.30
66710;DHT22;53624;0.000;0.000;2024-01-30T12:07:57;19.40;98.90
66710;DHT22;53624;0.000;0.000;2024-01-30T12:10:25;19.70;98.40
66710;DHT22;53624;0.000;0.000;2024-01-30T12:12:53;20.00;98.00
66710;DHT22;53624;0.000;0.000;2024-01-30T12:15:21;20.40;97.60
66710;DHT22;53624;0.000;0.000;2024-01-30T12:17:48;20.60;97.30
66710;DHT22;53624;0.000;0.000;2024-01-30T12:20:17;20.90;97.00
66710;DHT22;53624;0.000;0.000;2024-01-30T12:22:45;21.00;96.70
66710;DHT22;53624;0.000;0.000;2024-01-30T12:25:14;21.30;96.50
66710;DHT22;53624;0.000;0.000;2024-01-30T12:27:42;21.50;96.30
66710;DHT22;53624;0.000;0.000;2024-01-30T12:30:10;21.50;96.20
66710;DHT22;53624;0.000;0.000;2024-01-30T12:32:38;21.60;96.20
66710;DHT22;53624;0.000;0.000;2024-01-30T12:35:06;21.60;96.20
66710;DHT22;53624;0.000;0.000;2024-01-30T12:37:34;21.60;96.20
66710;DHT22;53624;0.000;0.000;2024-01-30T12:40:01;21.80;96.30
66710;DHT22;53624;0.000;0.000;2024-01-30T12:42:30;21.90;96.20
66710;DHT22;53624;0.000;0.000;2024-01-30T12:44:57;22.10;96.00
66710;DHT22;53624;0.000;0.000;2024-01-30T12:47:24;22.30;95.90
66710;DHT22;53624;0.000;0.000;2024-01-30T12:49:52;22.40;95.70
66710;DHT22;53624;0.000;0.000;2024-01-30T12:52:20;22.40;95.70
66710;DHT22;53624;0.000;0.000;2024-01-30T12:54:47;22.40;95.80
66710;DHT22;53624;0.000;0.000;2024-01-30T12:57:14;22.40;95.90
66710;DHT22;53624;0.000;0.000;2024-01-30T12:59:43;22.60;95.90
66710;DHT22;53624;0.000;0.000;2024-01-30T13:02:11;22.70;95.60
66710;DHT22;53624;0.000;0.000;2024-01-30T13:04:39;22.90;95.50
66710;DHT22;53624;0.000;0.000;2024-01-30T13:07:06;23.00;95.40
66710;DHT22;53624;0.000;0.000;2024-01-30T13:09:33;23.10;95.40
66710;DHT22;53624;0.000;0.000;2024-01-30T13:12:00;23.10;95.40
66710;DHT22;53624;0.000;0.000;2024-01-30T13:14:27;23.20;95.50
66710;DHT22;53624;0.000;0.000;2024-01-30T13:16:56;23.20;95.50
66710;DHT22;53624;0.000;0.000;2024-01-30T13:19:23;23.20;95.50
66710;DHT22;53624;0.000;0.000;2024-01-30T13:21:50;23.40;95.50
66710;DHT22;53624;0.000;0.000;2024-01-30T13:24:17;23.50;95.50
66710;DHT22;53624;0.000;0.000;2024-01-30T13:26:47;23.40;95.40
66710;DHT22;53624;0.000;0.000;2024-01-30T13:29:14;23.50;95.40
66710;DHT22;53624;0.000;0.000;2024-01-30T13:31:41;23.60;95.30
66710;DHT22;53624;0.000;0.000;2024-01-30T13:34:11;23.70;95.20
66710;DHT22;53624;0.000;0.000;2024-01-30T13:36:39;23.70;95.10
66710;DHT22;53624;0.000;0.000;2024-01-30T13:39:06;23.80;95.10
66710;DHT22;53624;0.000;0.000;2024-01-30T13:41:35;23.80;95.10
66710;DHT22;53624;0.000;0.000;2024-01-30T13:44:02;23.80;95.20
66710;DHT22;53624;0.000;0.000;2024-01-30T13:46:30;23.70;95.30
66710;DHT22;53624;0.000;0.000;2024-01-30T13:48:57;23.80;95.30
66710;DHT22;53624;0.000;0.000;2024-01-30T13:51:25;23.70;95.40
66710;DHT22;53624;0.000;0.000;2024-01-30T13:53:52;23.60;95.40
66710;DHT22;53624;0.000;0.000;2024-01-30T13:56:19;23.60;95.60
66710;DHT22;53624;0.000;0.000;2024-01-30T13:58:47;23.50;95.60
66710;DHT22;53624;0.000;0.000;2024-01-30T14:01:15;23.40;95.90
66710;DHT22;53624;0.000;0.000;2024-01-30T14:03:42;23.30;96.00
66710;DHT22;53624;0.000;0.000;2024-01-30T14:06:10;23.20;96.20
66710;DHT22;53624;0.000;0.000;2024-01-30T14:08:38;23.10;96.30
66710;DHT22;53624;0.000;0.000;2024-01-30T14:11:05;23.00;96.50
66710;DHT22;53624;0.000;0.000;2024-01-30T14:13:33;22.90;96.60
66710;DHT22;53624;0.000;0.000;2024-01-30T14:16:00;22.70;96.80
66710;DHT22;53624;0.000;0.000;2024-01-30T14:18:27;22.60;97.00
66710;DHT22;53624;0.000;0.000;2024-01-30T14:20:54;22.50;97.10
66710;DHT22;53624;0.000;0.000;2024-01-30T14:23:21;22.30;97.30
66710;DHT22;53624;0.000;0.000;2024-01-30T14:25:50;22.20;97.40
66710;DHT22;53624;0.000;0.000;2024-01-30T14:28:18;22.10;97.70
66710;DHT22;53624;0.000;0.000;2024-01-30T14:30:45;21.90;97.70
66710;DHT22;53624;0.000;0.000;2024-01-30T14:33:12;21.80;98.00
66710;DHT22;53624;0.000;0.000;2024-01-30T14:35:40;21.60;98.10
66710;DHT22;53624;0.000;0.000;2024-01-30T14:38:07;21.50;98.30
66710;DHT22;53624;0.000;0.000;2024-01-30T14:40:35;21.40;98.40
66710;DHT22;53624;0.000;0.000;2024-01-30T14:43:04;21.30;98.60
66710;DHT22;53624;0.000;0.000;2024-01-30T14:45:31;21.10;98.70
66710;DHT22;53624;0.000;0.000;2024-01-30T14:47:58;21.00;98.70
66710;DHT22;53624;0.000;0.000;2024-01-30T14:50:26;20.90;98.80
66710;DHT22;53624;0.000;0.000;2024-01-30T14:52:54;20.80;98.90
66710;DHT22;53624;0.000;0.000;2024-01-30T14:55:21;20.60;98.80
66710;DHT22;53624;0.000;0.000;2024-01-30T14:57:48;20.50;99.00
66710;DHT22;53624;0.000;0.000;2024-01-30T15:00:17;20.40;99.00
66710;DHT22;53624;0.000;0.000;2024-01-30T15:02:44;20.40;99.10
66710;DHT22;53624;0.000;0.000;2024-01-30T15:05:13;20.30;99.20
66710;DHT22;53624;0.000;0.000;2024-01-30T15:07:40;20.20;99.30
66710;DHT22;53624;0.000;0.000;2024-01-30T15:10:07;20.00;99.30
66710;DHT22;53624;0.000;0.000;2024-01-30T15:12:35;20.00;99.40
66710;DHT22;53624;0.000;0.000;2024-01-30T15:15:03;19.90;99.40
66710;DHT22;53624;0.000;0.000;2024-01-30T15:17:32;19.80;99.50
66710;DHT22;53624;0.000;0.000;2024-01-30T15:19:59;19.70;99.60
66710;DHT22;53624;0.000;0.000;2024-01-30T15:22:26;19.60;99.60
66710;DHT22;53624;0.000;0.000;2024-01-30T15:24:53;19.50;99.70
66710;DHT22;53624;0.000;0.000;2024-01-30T15:27:20;19.50;99.80
66710;DHT22;53624;0.000;0.000;2024-01-30T15:29:48;19.40;99.90
66710;DHT22;53624;0.000;0.000;2024-01-30T15:32:16;19.30;99.90
66710;DHT22;53624;0.000;0.000;2024-01-30T15:34:44;19.20;99.90
66710;DHT22;53624;0.000;0.000;2024-01-30T15:37:11;19.10;99.90
66710;DHT22;53624;0.000;0.000;2024-01-30T15:39:39;19.10;99.90
66710;DHT22;53624;0.000;0.000;2024-01-30T15:42:06;19.00;99.90
66710;DHT22;53624;0.000;0.000;2024-01-30T15:44:33;18.90;99.90
66710;DHT22;53624;0.000;0.000;2024-01-30T15:47:00;18.90;99.90